sensor_id;sensor_type;location;lat;lon;timestamp;temperature;humidity
47861;HTU21D;33620;52.340;5.984;2022-08-04T00:00:05;23.71;68.46
47861;HTU21D;33620;52.340;5.984;2022-08-04T00:05:03;23.65;68.58
47861;HTU21D;33620;52.340;5.984;2022-08-04T00:10:21;23.53;68.64
47861;HTU21D;33620;52.340;5.984;2022-08-04T00:12:50;23.43;68.82
47861;HTU21D;33620;52.340;5.984;2022-08-04T00:15:16;23.41;69.02
47861;HTU21D;33620;52.340;5.984;2022-08-04T00:17:49;23.41;69.33
47861;HTU21D;33620;52.340;5.984;2022-08-04T00:20:18;23.43;69.04
47861;HTU21D;33620;52.340;5.984;2022-08-04T00:22:45;23.42;69.08
47861;HTU21D;33620;52.340;5.984;2022-08-04T00:25:11;23.41;69.11
47861;HTU21D;33620;52.340;5.984;2022-08-04T00:27:37;23.36;69.26
47861;HTU21D;33620;52.340;5.984;2022-08-04T00:30:04;23.34;69.34
47861;HTU21D;33620;52.340;5.984;2022-08-04T00:32:30;23.29;69.25
47861;HTU21D;33620;52.340;5.984;2022-08-04T00:34:57;23.22;69.30
47861;HTU21D;33620;52.340;5.984;2022-08-04T00:37:24;23.17;69.57
47861;HTU21D;33620;52.340;5.984;2022-08-04T00:39:51;23.13;69.68
47861;HTU21D;33620;52.340;5.984;2022-08-04T00:45:33;23.08;69.67
47861;HTU21D;33620;52.340;5.984;2022-08-04T00:50:47;23.03;70.02
47861;HTU21D;33620;52.340;5.984;2022-08-04T00:53:39;23.02;69.90
47861;HTU21D;33620;52.340;5.984;2022-08-04T01:01:52;23.09;69.57
47861;HTU21D;33620;52.340;5.984;2022-08-04T01:07:11;22.97;69.87
47861;HTU21D;33620;52.340;5.984;2022-08-04T01:18:03;22.76;70.00
47861;HTU21D;33620;52.340;5.984;2022-08-04T01:20:40;22.67;70.28
47861;HTU21D;33620;52.340;5.984;2022-08-04T01:26:32;22.54;70.79
47861;HTU21D;33620;52.340;5.984;2022-08-04T01:34:05;22.52;71.06
47861;HTU21D;33620;52.340;5.984;2022-08-04T01:36:33;22.52;70.81
47861;HTU21D;33620;52.340;5.984;2022-08-04T01:39:00;22.49;70.67
47861;HTU21D;33620;52.340;5.984;2022-08-04T01:41:45;22.40;70.68
47861;HTU21D;33620;52.340;5.984;2022-08-04T01:44:12;22.37;71.11
47861;HTU21D;33620;52.340;5.984;2022-08-04T01:46:39;22.37;70.97
47861;HTU21D;33620;52.340;5.984;2022-08-04T01:49:05;22.39;71.02
47861;HTU21D;33620;52.340;5.984;2022-08-04T01:51:31;22.43;70.94
47861;HTU21D;33620;52.340;5.984;2022-08-04T01:54:00;22.49;70.89
47861;HTU21D;33620;52.340;5.984;2022-08-04T01:56:27;22.47;70.77
47861;HTU21D;33620;52.340;5.984;2022-08-04T01:58:56;22.40;71.03
47861;HTU21D;33620;52.340;5.984;2022-08-04T02:01:21;22.38;71.10
47861;HTU21D;33620;52.340;5.984;2022-08-04T02:03:47;22.37;71.30
47861;HTU21D;33620;52.340;5.984;2022-08-04T02:09:21;22.44;71.46
47861;HTU21D;33620;52.340;5.984;2022-08-04T02:12:01;22.41;71.52
47861;HTU21D;33620;52.340;5.984;2022-08-04T02:14:29;22.44;71.30
47861;HTU21D;33620;52.340;5.984;2022-08-04T02:17:13;22.36;71.24
47861;HTU21D;33620;52.340;5.984;2022-08-04T02:22:21;22.34;71.54
47861;HTU21D;33620;52.340;5.984;2022-08-04T02:25:04;22.34;71.38
47861;HTU21D;33620;52.340;5.984;2022-08-04T02:27:35;22.28;71.40
47861;HTU21D;33620;52.340;5.984;2022-08-04T02:30:04;22.25;71.58
47861;HTU21D;33620;52.340;5.984;2022-08-04T02:32:32;22.24;71.65
47861;HTU21D;33620;52.340;5.984;2022-08-04T02:35:14;22.22;71.61
47861;HTU21D;33620;52.340;5.984;2022-08-04T02:37:55;22.20;71.79
47861;HTU21D;33620;52.340;5.984;2022-08-04T02:40:25;22.14;71.89
47861;HTU21D;33620;52.340;5.984;2022-08-04T02:42:52;22.11;72.03
47861;HTU21D;33620;52.340;5.984;2022-08-04T02:45:21;22.10;71.91
47861;HTU21D;33620;52.340;5.984;2022-08-04T02:47:49;22.06;72.13
47861;HTU21D;33620;52.340;5.984;2022-08-04T02:50:17;22.03;72.17
47861;HTU21D;33620;52.340;5.984;2022-08-04T02:52:44;22.02;72.32
47861;HTU21D;33620;52.340;5.984;2022-08-04T02:55:10;22.01;72.13
47861;HTU21D;33620;52.340;5.984;2022-08-04T02:57:36;22.01;72.15
47861;HTU21D;33620;52.340;5.984;2022-08-04T03:00:11;21.97;72.06
47861;HTU21D;33620;52.340;5.984;2022-08-04T03:05:31;21.92;72.39
47861;HTU21D;33620;52.340;5.984;2022-08-04T03:10:59;21.84;72.45
47861;HTU21D;33620;52.340;5.984;2022-08-04T03:27:23;21.70;71.64
47861;HTU21D;33620;52.340;5.984;2022-08-04T03:38:41;21.36;72.49
47861;HTU21D;33620;52.340;5.984;2022-08-04T03:55:16;21.03;73.32
47861;HTU21D;33620;52.340;5.984;2022-08-04T04:00:41;21.00;73.84
47861;HTU21D;33620;52.340;5.984;2022-08-04T04:06:11;21.13;73.65
47861;HTU21D;33620;52.340;5.984;2022-08-04T04:09:07;21.18;73.43
47861;HTU21D;33620;52.340;5.984;2022-08-04T04:12:06;21.16;73.32
47861;HTU21D;33620;52.340;5.984;2022-08-04T04:15:35;21.14;73.51
47861;HTU21D;33620;52.340;5.984;2022-08-04T04:26:25;21.21;73.93
47861;HTU21D;33620;52.340;5.984;2022-08-04T04:29:20;21.24;73.30
47861;HTU21D;33620;52.340;5.984;2022-08-04T04:34:38;21.06;74.02
47861;HTU21D;33620;52.340;5.984;2022-08-04T04:37:36;21.09;74.35
47861;HTU21D;33620;52.340;5.984;2022-08-04T04:51:32;21.07;74.86
47861;HTU21D;33620;52.340;5.984;2022-08-04T04:54:16;21.06;74.71
47861;HTU21D;33620;52.340;5.984;2022-08-04T04:59:31;21.07;74.96
47861;HTU21D;33620;52.340;5.984;2022-08-04T05:04:41;21.18;74.81
47861;HTU21D;33620;52.340;5.984;2022-08-04T05:10:34;21.33;74.77
47861;HTU21D;33620;52.340;5.984;2022-08-04T05:16:26;21.48;74.54
47861;HTU21D;33620;52.340;5.984;2022-08-04T05:19:25;21.54;74.44
47861;HTU21D;33620;52.340;5.984;2022-08-04T05:22:01;21.57;74.38
47861;HTU21D;33620;52.340;5.984;2022-08-04T05:24:30;21.59;74.42
47861;HTU21D;33620;52.340;5.984;2022-08-04T05:27:01;21.62;74.71
47861;HTU21D;33620;52.340;5.984;2022-08-04T05:29:34;21.67;74.54
47861;HTU21D;33620;52.340;5.984;2022-08-04T05:32:02;21.69;74.61
47861;HTU21D;33620;52.340;5.984;2022-08-04T05:34:32;21.74;74.67
47861;HTU21D;33620;52.340;5.984;2022-08-04T05:37:02;21.80;74.73
47861;HTU21D;33620;52.340;5.984;2022-08-04T05:39:36;21.90;74.70
47861;HTU21D;33620;52.340;5.984;2022-08-04T05:42:04;21.99;74.26
47861;HTU21D;33620;52.340;5.984;2022-08-04T05:44:31;22.09;74.36
47861;HTU21D;33620;52.340;5.984;2022-08-04T05:46:57;22.14;74.25
47861;HTU21D;33620;52.340;5.984;2022-08-04T05:49:25;22.20;74.36
47861;HTU21D;33620;52.340;5.984;2022-08-04T05:51:52;22.26;74.31
47861;HTU21D;33620;52.340;5.984;2022-08-04T05:54:19;22.29;74.18
47861;HTU21D;33620;52.340;5.984;2022-08-04T05:56:46;22.36;74.39
47861;HTU21D;33620;52.340;5.984;2022-08-04T05:59:13;22.44;74.27
47861;HTU21D;33620;52.340;5.984;2022-08-04T06:01:39;22.51;73.89
47861;HTU21D;33620;52.340;5.984;2022-08-04T06:04:05;22.60;73.89
47861;HTU21D;33620;52.340;5.984;2022-08-04T06:06:31;22.64;74.02
47861;HTU21D;33620;52.340;5.984;2022-08-04T06:08:57;22.65;74.17
47861;HTU21D;33620;52.340;5.984;2022-08-04T06:11:26;22.68;73.92
47861;HTU21D;33620;52.340;5.984;2022-08-04T06:13:56;22.78;73.89
47861;HTU21D;33620;52.340;5.984;2022-08-04T06:16:23;22.88;73.64
47861;HTU21D;33620;52.340;5.984;2022-08-04T06:18:51;22.99;73.15
47861;HTU21D;33620;52.340;5.984;2022-08-04T06:21:22;23.06;73.41
47861;HTU21D;33620;52.340;5.984;2022-08-04T06:23:50;23.12;72.79
47861;HTU21D;33620;52.340;5.984;2022-08-04T06:26:17;23.20;72.70
47861;HTU21D;33620;52.340;5.984;2022-08-04T06:28:49;23.28;73.03
47861;HTU21D;33620;52.340;5.984;2022-08-04T06:31:19;23.34;72.35
47861;HTU21D;33620;52.340;5.984;2022-08-04T06:34:08;23.43;72.01
47861;HTU21D;33620;52.340;5.984;2022-08-04T06:36:34;23.51;72.02
47861;HTU21D;33620;52.340;5.984;2022-08-04T06:39:03;23.57;72.93
47861;HTU21D;33620;52.340;5.984;2022-08-04T06:41:29;23.62;72.72
47861;HTU21D;33620;52.340;5.984;2022-08-04T06:44:01;23.69;72.57
47861;HTU21D;33620;52.340;5.984;2022-08-04T06:46:28;23.71;71.64
47861;HTU21D;33620;52.340;5.984;2022-08-04T06:48:55;23.77;72.37
47861;HTU21D;33620;52.340;5.984;2022-08-04T06:51:22;23.83;72.64
47861;HTU21D;33620;52.340;5.984;2022-08-04T06:53:49;23.88;72.22
47861;HTU21D;33620;52.340;5.984;2022-08-04T06:56:15;23.95;71.90
47861;HTU21D;33620;52.340;5.984;2022-08-04T06:58:42;24.02;71.96
47861;HTU21D;33620;52.340;5.984;2022-08-04T07:01:09;24.09;72.01
47861;HTU21D;33620;52.340;5.984;2022-08-04T07:03:35;24.14;71.96
47861;HTU21D;33620;52.340;5.984;2022-08-04T07:06:01;24.19;71.51
47861;HTU21D;33620;52.340;5.984;2022-08-04T07:08:27;24.26;71.13
47861;HTU21D;33620;52.340;5.984;2022-08-04T07:10:53;24.32;71.12
47861;HTU21D;33620;52.340;5.984;2022-08-04T07:13:20;24.40;71.49
47861;HTU21D;33620;52.340;5.984;2022-08-04T07:15:47;24.43;72.00
47861;HTU21D;33620;52.340;5.984;2022-08-04T07:18:13;24.49;72.58
47861;HTU21D;33620;52.340;5.984;2022-08-04T07:20:43;24.55;72.27
47861;HTU21D;33620;52.340;5.984;2022-08-04T07:23:09;24.59;71.67
47861;HTU21D;33620;52.340;5.984;2022-08-04T07:25:37;24.65;71.42
47861;HTU21D;33620;52.340;5.984;2022-08-04T07:28:03;24.72;71.73
47861;HTU21D;33620;52.340;5.984;2022-08-04T07:30:29;24.75;71.19
47861;HTU21D;33620;52.340;5.984;2022-08-04T07:32:54;24.82;71.49
47861;HTU21D;33620;52.340;5.984;2022-08-04T07:35:20;24.86;71.20
47861;HTU21D;33620;52.340;5.984;2022-08-04T07:37:47;24.90;70.03
47861;HTU21D;33620;52.340;5.984;2022-08-04T07:40:12;24.95;70.46
47861;HTU21D;33620;52.340;5.984;2022-08-04T07:42:38;25.02;70.65
47861;HTU21D;33620;52.340;5.984;2022-08-04T07:45:04;25.07;70.42
47861;HTU21D;33620;52.340;5.984;2022-08-04T07:47:30;25.13;69.33
47861;HTU21D;33620;52.340;5.984;2022-08-04T07:49:55;25.18;69.23
47861;HTU21D;33620;52.340;5.984;2022-08-04T07:52:21;25.23;69.01
47861;HTU21D;33620;52.340;5.984;2022-08-04T07:54:48;25.27;67.97
47861;HTU21D;33620;52.340;5.984;2022-08-04T07:57:16;25.32;67.71
47861;HTU21D;33620;52.340;5.984;2022-08-04T07:59:43;25.34;66.39
47861;HTU21D;33620;52.340;5.984;2022-08-04T08:02:09;25.37;65.76
47861;HTU21D;33620;52.340;5.984;2022-08-04T08:04:35;25.38;64.63
47861;HTU21D;33620;52.340;5.984;2022-08-04T08:07:00;25.45;64.70
47861;HTU21D;33620;52.340;5.984;2022-08-04T08:09:25;25.48;64.24
47861;HTU21D;33620;52.340;5.984;2022-08-04T08:11:52;25.50;64.29
47861;HTU21D;33620;52.340;5.984;2022-08-04T08:14:18;25.53;64.95
47861;HTU21D;33620;52.340;5.984;2022-08-04T08:16:45;25.59;64.86
47861;HTU21D;33620;52.340;5.984;2022-08-04T08:19:11;25.58;63.83
47861;HTU21D;33620;52.340;5.984;2022-08-04T08:21:37;25.59;64.51
47861;HTU21D;33620;52.340;5.984;2022-08-04T08:24:04;25.61;65.01
47861;HTU21D;33620;52.340;5.984;2022-08-04T08:26:29;25.63;64.66
47861;HTU21D;33620;52.340;5.984;2022-08-04T08:28:55;25.66;64.70
47861;HTU21D;33620;52.340;5.984;2022-08-04T08:31:21;25.68;64.15
47861;HTU21D;33620;52.340;5.984;2022-08-04T08:33:48;25.67;63.90
47861;HTU21D;33620;52.340;5.984;2022-08-04T08:36:37;25.65;63.92
47861;HTU21D;33620;52.340;5.984;2022-08-04T08:39:30;25.67;64.30
47861;HTU21D;33620;52.340;5.984;2022-08-04T08:42:08;25.73;64.76
47861;HTU21D;33620;52.340;5.984;2022-08-04T09:17:39;26.49;62.05
47861;HTU21D;33620;52.340;5.984;2022-08-04T09:22:53;26.58;61.24
47861;HTU21D;33620;52.340;5.984;2022-08-04T09:25:45;26.58;61.43
47861;HTU21D;33620;52.340;5.984;2022-08-04T09:28:20;26.69;60.69
47861;HTU21D;33620;52.340;5.984;2022-08-04T09:31:01;26.67;60.47
47861;HTU21D;33620;52.340;5.984;2022-08-04T09:36:42;26.82;59.43
47861;HTU21D;33620;52.340;5.984;2022-08-04T09:39:28;26.87;59.41
47861;HTU21D;33620;52.340;5.984;2022-08-04T09:42:00;27.00;58.99
47861;HTU21D;33620;52.340;5.984;2022-08-04T09:47:24;27.08;58.90
47861;HTU21D;33620;52.340;5.984;2022-08-04T09:50:11;27.04;58.10
47861;HTU21D;33620;52.340;5.984;2022-08-04T09:55:33;27.02;57.74
47861;HTU21D;33620;52.340;5.984;2022-08-04T10:00:48;27.00;59.69
47861;HTU21D;33620;52.340;5.984;2022-08-04T10:03:15;26.99;60.14
47861;HTU21D;33620;52.340;5.984;2022-08-04T10:11:06;26.87;58.99
47861;HTU21D;33620;52.340;5.984;2022-08-04T10:14:04;26.83;59.27
47861;HTU21D;33620;52.340;5.984;2022-08-04T10:19:28;26.76;59.95
47861;HTU21D;33620;52.340;5.984;2022-08-04T10:22:24;26.70;59.87
47861;HTU21D;33620;52.340;5.984;2022-08-04T10:30:03;26.68;59.22
47861;HTU21D;33620;52.340;5.984;2022-08-04T10:32:55;26.72;58.68
47861;HTU21D;33620;52.340;5.984;2022-08-04T10:35:24;26.73;57.84
47861;HTU21D;33620;52.340;5.984;2022-08-04T10:43:28;26.90;57.57
47861;HTU21D;33620;52.340;5.984;2022-08-04T10:45:57;27.08;56.30
47861;HTU21D;33620;52.340;5.984;2022-08-04T10:48:40;27.15;56.12
47861;HTU21D;33620;52.340;5.984;2022-08-04T10:51:33;27.21;55.88
47861;HTU21D;33620;52.340;5.984;2022-08-04T10:54:02;27.17;56.51
47861;HTU21D;33620;52.340;5.984;2022-08-04T10:56:47;27.16;56.25
47861;HTU21D;33620;52.340;5.984;2022-08-04T10:59:23;27.04;56.50
47861;HTU21D;33620;52.340;5.984;2022-08-04T11:01:56;26.99;56.68
47861;HTU21D;33620;52.340;5.984;2022-08-04T11:06:55;26.86;57.48
47861;HTU21D;33620;52.340;5.984;2022-08-04T11:09:23;26.82;57.84
47861;HTU21D;33620;52.340;5.984;2022-08-04T11:11:53;26.71;57.06
47861;HTU21D;33620;52.340;5.984;2022-08-04T11:14:28;26.67;56.52
47861;HTU21D;33620;52.340;5.984;2022-08-04T11:17:07;26.58;56.28
47861;HTU21D;33620;52.340;5.984;2022-08-04T11:19:48;26.53;56.59
47861;HTU21D;33620;52.340;5.984;2022-08-04T11:22:23;26.50;56.90
47861;HTU21D;33620;52.340;5.984;2022-08-04T11:27:57;26.37;57.10
47861;HTU21D;33620;52.340;5.984;2022-08-04T11:30:30;26.30;57.35
47861;HTU21D;33620;52.340;5.984;2022-08-04T11:35:56;26.26;57.71
47861;HTU21D;33620;52.340;5.984;2022-08-04T11:41:19;26.10;58.10
47861;HTU21D;33620;52.340;5.984;2022-08-04T11:43:53;25.99;58.34
47861;HTU21D;33620;52.340;5.984;2022-08-04T11:46:25;25.93;59.15
47861;HTU21D;33620;52.340;5.984;2022-08-04T11:48:57;25.82;60.11
47861;HTU21D;33620;52.340;5.984;2022-08-04T11:51:26;25.77;60.41
47861;HTU21D;33620;52.340;5.984;2022-08-04T11:53:53;25.68;60.47
47861;HTU21D;33620;52.340;5.984;2022-08-04T11:56:19;25.62;61.05
47861;HTU21D;33620;52.340;5.984;2022-08-04T11:58:45;25.59;62.22
47861;HTU21D;33620;52.340;5.984;2022-08-04T12:04:15;25.46;64.27
47861;HTU21D;33620;52.340;5.984;2022-08-04T12:06:55;25.42;64.78
47861;HTU21D;33620;52.340;5.984;2022-08-04T12:09:31;25.42;65.89
47861;HTU21D;33620;52.340;5.984;2022-08-04T12:17:37;25.49;65.01
47861;HTU21D;33620;52.340;5.984;2022-08-04T12:20:04;25.51;62.44
47861;HTU21D;33620;52.340;5.984;2022-08-04T12:22:36;25.57;63.77
47861;HTU21D;33620;52.340;5.984;2022-08-04T12:25:07;25.63;63.38
47861;HTU21D;33620;52.340;5.984;2022-08-04T12:27:46;25.66;62.67
47861;HTU21D;33620;52.340;5.984;2022-08-04T12:30:15;25.86;64.39
47861;HTU21D;33620;52.340;5.984;2022-08-04T12:32:58;25.95;60.35
47861;HTU21D;33620;52.340;5.984;2022-08-04T12:35:55;26.06;59.57
47861;HTU21D;33620;52.340;5.984;2022-08-04T12:38:25;26.28;60.42
47861;HTU21D;33620;52.340;5.984;2022-08-04T12:40:54;26.48;58.84
47861;HTU21D;33620;52.340;5.984;2022-08-04T12:43:42;26.58;58.78
47861;HTU21D;33620;52.340;5.984;2022-08-04T12:46:09;26.75;57.98
47861;HTU21D;33620;52.340;5.984;2022-08-04T12:48:37;26.83;55.81
47861;HTU21D;33620;52.340;5.984;2022-08-04T12:51:06;26.95;56.32
47861;HTU21D;33620;52.340;5.984;2022-08-04T12:53:38;26.99;56.03
47861;HTU21D;33620;52.340;5.984;2022-08-04T12:56:05;27.14;55.71
47861;HTU21D;33620;52.340;5.984;2022-08-04T12:58:39;27.23;55.09
47861;HTU21D;33620;52.340;5.984;2022-08-04T13:01:07;27.28;55.10
47861;HTU21D;33620;52.340;5.984;2022-08-04T13:03:45;27.15;52.65
47861;HTU21D;33620;52.340;5.984;2022-08-04T13:06:14;27.21;53.82
47861;HTU21D;33620;52.340;5.984;2022-08-04T13:08:41;27.39;54.17
47861;HTU21D;33620;52.340;5.984;2022-08-04T13:11:09;27.51;52.56
47861;HTU21D;33620;52.340;5.984;2022-08-04T13:13:36;27.63;51.50
47861;HTU21D;33620;52.340;5.984;2022-08-04T13:16:07;27.71;51.95
47861;HTU21D;33620;52.340;5.984;2022-08-04T13:18:36;27.84;51.05
47861;HTU21D;33620;52.340;5.984;2022-08-04T13:21:14;27.88;50.78
47861;HTU21D;33620;52.340;5.984;2022-08-04T13:23:41;27.93;50.74
47861;HTU21D;33620;52.340;5.984;2022-08-04T13:26:13;28.02;49.84
47861;HTU21D;33620;52.340;5.984;2022-08-04T13:28:42;28.15;49.62
47861;HTU21D;33620;52.340;5.984;2022-08-04T13:31:10;28.17;49.64
47861;HTU21D;33620;52.340;5.984;2022-08-04T13:33:38;28.20;48.62
47861;HTU21D;33620;52.340;5.984;2022-08-04T13:36:06;28.23;49.49
47861;HTU21D;33620;52.340;5.984;2022-08-04T13:38:32;28.30;49.37
47861;HTU21D;33620;52.340;5.984;2022-08-04T13:41:00;28.39;49.50
47861;HTU21D;33620;52.340;5.984;2022-08-04T13:43:32;28.42;49.50
47861;HTU21D;33620;52.340;5.984;2022-08-04T13:46:01;28.58;49.16
47861;HTU21D;33620;52.340;5.984;2022-08-04T13:48:35;28.67;48.14
47861;HTU21D;33620;52.340;5.984;2022-08-04T13:51:03;28.72;48.97
47861;HTU21D;33620;52.340;5.984;2022-08-04T13:53:31;28.77;48.60
47861;HTU21D;33620;52.340;5.984;2022-08-04T13:55:58;28.79;46.99
47861;HTU21D;33620;52.340;5.984;2022-08-04T13:58:24;28.78;48.45
47861;HTU21D;33620;52.340;5.984;2022-08-04T14:01:02;28.77;47.10
47861;HTU21D;33620;52.340;5.984;2022-08-04T14:03:33;28.83;47.77
47861;HTU21D;33620;52.340;5.984;2022-08-04T14:06:09;28.90;47.28
47861;HTU21D;33620;52.340;5.984;2022-08-04T14:08:46;28.83;47.76
47861;HTU21D;33620;52.340;5.984;2022-08-04T14:11:12;28.74;48.12
47861;HTU21D;33620;52.340;5.984;2022-08-04T14:13:38;28.73;48.34
47861;HTU21D;33620;52.340;5.984;2022-08-04T14:16:19;28.72;47.94
47861;HTU21D;33620;52.340;5.984;2022-08-04T14:18:45;28.75;47.38
47861;HTU21D;33620;52.340;5.984;2022-08-04T14:21:13;28.72;47.84
47861;HTU21D;33620;52.340;5.984;2022-08-04T14:23:51;28.70;47.70
47861;HTU21D;33620;52.340;5.984;2022-08-04T14:26:24;28.63;47.38
47861;HTU21D;33620;52.340;5.984;2022-08-04T14:28:50;28.68;48.05
47861;HTU21D;33620;52.340;5.984;2022-08-04T14:31:18;28.71;47.73
47861;HTU21D;33620;52.340;5.984;2022-08-04T14:33:45;28.82;47.25
47861;HTU21D;33620;52.340;5.984;2022-08-04T14:36:12;28.76;47.21
47861;HTU21D;33620;52.340;5.984;2022-08-04T14:41:07;28.80;46.54
47861;HTU21D;33620;52.340;5.984;2022-08-04T14:43:40;28.59;45.83
47861;HTU21D;33620;52.340;5.984;2022-08-04T14:46:06;28.34;46.25
47861;HTU21D;33620;52.340;5.984;2022-08-04T14:48:31;28.18;47.36
47861;HTU21D;33620;52.340;5.984;2022-08-04T14:50:56;28.15;47.44
47861;HTU21D;33620;52.340;5.984;2022-08-04T14:53:23;28.31;47.62
47861;HTU21D;33620;52.340;5.984;2022-08-04T14:55:59;28.41;46.07
47861;HTU21D;33620;52.340;5.984;2022-08-04T14:58:30;28.40;46.15
47861;HTU21D;33620;52.340;5.984;2022-08-04T15:01:05;28.31;46.09
47861;HTU21D;33620;52.340;5.984;2022-08-04T15:03:31;28.30;46.18
47861;HTU21D;33620;52.340;5.984;2022-08-04T15:05:59;28.32;47.01
47861;HTU21D;33620;52.340;5.984;2022-08-04T15:08:26;28.35;46.44
47861;HTU21D;33620;52.340;5.984;2022-08-04T15:10:52;28.37;46.49
47861;HTU21D;33620;52.340;5.984;2022-08-04T15:13:23;28.45;46.93
47861;HTU21D;33620;52.340;5.984;2022-08-04T15:15:48;28.50;46.48
47861;HTU21D;33620;52.340;5.984;2022-08-04T15:18:14;28.61;45.64
47861;HTU21D;33620;52.340;5.984;2022-08-04T15:20:39;28.59;46.22
47861;HTU21D;33620;52.340;5.984;2022-08-04T15:23:06;28.54;45.87
47861;HTU21D;33620;52.340;5.984;2022-08-04T15:25:38;28.55;45.93
47861;HTU21D;33620;52.340;5.984;2022-08-04T15:28:07;28.55;46.09
47861;HTU21D;33620;52.340;5.984;2022-08-04T15:30:36;28.62;45.88
47861;HTU21D;33620;52.340;5.984;2022-08-04T15:33:03;28.59;45.78
47861;HTU21D;33620;52.340;5.984;2022-08-04T15:35:30;28.50;45.65
47861;HTU21D;33620;52.340;5.984;2022-08-04T15:40:52;28.52;46.09
47861;HTU21D;33620;52.340;5.984;2022-08-04T15:46:06;28.13;45.72
47861;HTU21D;33620;52.340;5.984;2022-08-04T15:48:32;28.02;46.38
47861;HTU21D;33620;52.340;5.984;2022-08-04T15:50:59;27.98;46.41
47861;HTU21D;33620;52.340;5.984;2022-08-04T15:56:00;27.94;46.41
47861;HTU21D;33620;52.340;5.984;2022-08-04T15:58:49;27.87;46.35
47861;HTU21D;33620;52.340;5.984;2022-08-04T16:01:15;27.85;46.58
47861;HTU21D;33620;52.340;5.984;2022-08-04T16:03:43;27.78;46.42
47861;HTU21D;33620;52.340;5.984;2022-08-04T16:16:44;27.36;47.04
47861;HTU21D;33620;52.340;5.984;2022-08-04T16:21:54;27.15;46.98
47861;HTU21D;33620;52.340;5.984;2022-08-04T16:27:00;26.97;46.64
47861;HTU21D;33620;52.340;5.984;2022-08-04T16:29:31;26.97;47.20
47861;HTU21D;33620;52.340;5.984;2022-08-04T16:34:37;26.76;47.39
47861;HTU21D;33620;52.340;5.984;2022-08-04T16:37:05;26.77;47.86
47861;HTU21D;33620;52.340;5.984;2022-08-04T16:39:32;26.84;47.22
47861;HTU21D;33620;52.340;5.984;2022-08-04T16:41:57;26.97;47.28
47861;HTU21D;33620;52.340;5.984;2022-08-04T16:46:55;27.14;46.47
47861;HTU21D;33620;52.340;5.984;2022-08-04T16:49:21;27.06;46.79
47861;HTU21D;33620;52.340;5.984;2022-08-04T16:51:48;27.04;46.44
47861;HTU21D;33620;52.340;5.984;2022-08-04T16:54:13;27.00;47.30
47861;HTU21D;33620;52.340;5.984;2022-08-04T16:56:39;26.93;46.99
47861;HTU21D;33620;52.340;5.984;2022-08-04T16:59:09;26.78;47.73
47861;HTU21D;33620;52.340;5.984;2022-08-04T17:01:36;26.62;48.16
47861;HTU21D;33620;52.340;5.984;2022-08-04T17:04:03;26.60;48.33
47861;HTU21D;33620;52.340;5.984;2022-08-04T17:06:33;26.61;48.92
47861;HTU21D;33620;52.340;5.984;2022-08-04T17:09:04;26.61;48.63
47861;HTU21D;33620;52.340;5.984;2022-08-04T17:11:31;26.54;49.26
47861;HTU21D;33620;52.340;5.984;2022-08-04T17:13:59;26.57;49.80
47861;HTU21D;33620;52.340;5.984;2022-08-04T17:16:27;26.71;49.42
47861;HTU21D;33620;52.340;5.984;2022-08-04T17:18:54;26.76;49.66
47861;HTU21D;33620;52.340;5.984;2022-08-04T17:21:24;26.72;49.27
47861;HTU21D;33620;52.340;5.984;2022-08-04T17:23:56;26.62;49.73
47861;HTU21D;33620;52.340;5.984;2022-08-04T17:26:27;26.51;49.47
47861;HTU21D;33620;52.340;5.984;2022-08-04T17:28:56;26.52;49.52
47861;HTU21D;33620;52.340;5.984;2022-08-04T17:31:24;26.43;49.75
47861;HTU21D;33620;52.340;5.984;2022-08-04T17:33:52;26.37;49.62
47861;HTU21D;33620;52.340;5.984;2022-08-04T17:36:28;26.32;49.98
47861;HTU21D;33620;52.340;5.984;2022-08-04T17:38:57;26.28;50.10
47861;HTU21D;33620;52.340;5.984;2022-08-04T17:41:25;26.09;50.40
47861;HTU21D;33620;52.340;5.984;2022-08-04T17:43:51;26.03;50.62
47861;HTU21D;33620;52.340;5.984;2022-08-04T17:54:03;25.81;51.10
47861;HTU21D;33620;52.340;5.984;2022-08-04T17:56:34;25.71;51.50
47861;HTU21D;33620;52.340;5.984;2022-08-04T18:01:51;25.47;52.07
47861;HTU21D;33620;52.340;5.984;2022-08-04T18:07:09;25.25;52.47
47861;HTU21D;33620;52.340;5.984;2022-08-04T18:09:51;25.22;52.59
47861;HTU21D;33620;52.340;5.984;2022-08-04T18:12:34;25.14;52.79
47861;HTU21D;33620;52.340;5.984;2022-08-04T18:17:53;25.00;52.33
47861;HTU21D;33620;52.340;5.984;2022-08-04T18:20:24;24.95;52.43
47861;HTU21D;33620;52.340;5.984;2022-08-04T18:22:49;24.88;52.57
47861;HTU21D;33620;52.340;5.984;2022-08-04T18:25:20;24.76;53.04
47861;HTU21D;33620;52.340;5.984;2022-08-04T18:28:05;24.75;53.27
47861;HTU21D;33620;52.340;5.984;2022-08-04T18:30:34;24.80;53.33
47861;HTU21D;33620;52.340;5.984;2022-08-04T18:33:02;24.78;53.38
47861;HTU21D;33620;52.340;5.984;2022-08-04T18:35:29;24.85;53.30
47861;HTU21D;33620;52.340;5.984;2022-08-04T18:37:58;24.73;53.65
47861;HTU21D;33620;52.340;5.984;2022-08-04T18:40:24;24.70;54.10
47861;HTU21D;33620;52.340;5.984;2022-08-04T18:42:53;24.65;53.99
47861;HTU21D;33620;52.340;5.984;2022-08-04T18:45:21;24.56;54.26
47861;HTU21D;33620;52.340;5.984;2022-08-04T18:47:51;24.54;54.46
47861;HTU21D;33620;52.340;5.984;2022-08-04T18:50:17;24.53;54.64
47861;HTU21D;33620;52.340;5.984;2022-08-04T18:52:49;24.51;54.17
47861;HTU21D;33620;52.340;5.984;2022-08-04T18:55:14;24.43;54.49
47861;HTU21D;33620;52.340;5.984;2022-08-04T18:57:40;24.42;54.65
47861;HTU21D;33620;52.340;5.984;2022-08-04T19:00:06;24.36;54.85
47861;HTU21D;33620;52.340;5.984;2022-08-04T19:02:36;24.31;55.10
47861;HTU21D;33620;52.340;5.984;2022-08-04T19:05:02;24.23;55.46
47861;HTU21D;33620;52.340;5.984;2022-08-04T19:07:35;24.24;55.59
47861;HTU21D;33620;52.340;5.984;2022-08-04T19:10:05;24.23;55.77
47861;HTU21D;33620;52.340;5.984;2022-08-04T19:12:31;24.19;55.90
47861;HTU21D;33620;52.340;5.984;2022-08-04T19:14:58;24.15;56.22
47861;HTU21D;33620;52.340;5.984;2022-08-04T19:17:25;24.12;56.85
47861;HTU21D;33620;52.340;5.984;2022-08-04T19:19:55;24.05;57.43
47861;HTU21D;33620;52.340;5.984;2022-08-04T19:22:21;23.99;57.98
47861;HTU21D;33620;52.340;5.984;2022-08-04T19:24:46;23.92;58.34
47861;HTU21D;33620;52.340;5.984;2022-08-04T19:27:16;23.89;59.25
47861;HTU21D;33620;52.340;5.984;2022-08-04T19:29:41;23.81;59.78
47861;HTU21D;33620;52.340;5.984;2022-08-04T19:32:07;23.79;59.67
47861;HTU21D;33620;52.340;5.984;2022-08-04T19:34:36;23.84;59.80
47861;HTU21D;33620;52.340;5.984;2022-08-04T19:37:05;23.86;60.08
47861;HTU21D;33620;52.340;5.984;2022-08-04T19:39:31;23.82;60.11
47861;HTU21D;33620;52.340;5.984;2022-08-04T19:41:59;23.75;60.57
47861;HTU21D;33620;52.340;5.984;2022-08-04T19:44:28;23.77;60.99
47861;HTU21D;33620;52.340;5.984;2022-08-04T19:46:54;23.81;60.76
47861;HTU21D;33620;52.340;5.984;2022-08-04T19:49:19;23.79;60.51
47861;HTU21D;33620;52.340;5.984;2022-08-04T19:51:48;23.79;60.68
47861;HTU21D;33620;52.340;5.984;2022-08-04T19:54:17;23.69;60.77